Beeton, Utah
Current Conditions -  °F | °C
As of 6:15 AM on Thursday 30 Oct 2014 (Local Time) from KBMC Reporting Station
Clear Clear  
Wind Chill: 37°   Ceiling: Unl
Heat Index: 37°   Visibility: 10mi
Dew Point: 29°   Wind: 0mph
Humidity: 71%   Direction: NA
Pressure: 30.29"   Gusts: NA
Location:  41.7137°N, 112.087°W
Report Text: KBMC 301215Z AUTO 00000KT 10SM CLR 03/M02 A3029 RMK AO1 T00291018
Loading
Personal Weather Stations






























Interactive Weather Map
Tropical Storm Tracking
New forecast layout! Learn more

10-Day Weather Forecast

Advertisements
Track Severe Weather on mobile